Time;durP1;ratioP1;P1;durP2;ratioP2;P2;SDS_P1;SDS_P2;PMS_P1;PMS_P2;Temp;Humidity;BMP_temperature;BMP_pressure;BME280_temperature;BME280_humidity;BME280_pressure;Samples;Min_cycle;Max_cycle;Signal;HPM_P1;HPM_P2
2022/08/31 00:04:30;;;;;;;1.10;1.10;;;;;;;;;;4991902;28;20429;-65
2022/08/31 00:06:55;;;;;;;1.42;1.30;;;;;;;;;;4992189;28;20075;-65
2022/08/31 00:09:21;;;;;;;1.42;1.20;;;;;;;;;;4991983;28;20034;-65
2022/08/31 00:11:46;;;;;;;1.08;1.08;;;;;;;;;;4992231;28;20373;-65
2022/08/31 00:14:12;;;;;;;1.35;1.10;;;;;;;;;;4992231;28;20034;-65
2022/08/31 00:16:39;;;;;;;1.48;1.20;;;;;;;;;;4992526;28;20126;-64
2022/08/31 00:19:05;;;;;;;1.15;1.10;;;;;;;;;;4992095;28;20117;-65
2022/08/31 00:21:31;;;;;;;1.10;1.10;;;;;;;;;;4991130;28;20101;-64
2022/08/31 00:23:56;;;;;;;1.00;1.00;;;;;;;;;;4991150;28;20125;-65
2022/08/31 00:26:22;;;;;;;1.15;1.15;;;;;;;;;;4991505;28;20037;-65
2022/08/31 00:28:48;;;;;;;1.95;1.02;;;;;;;;;;4992335;28;20435;-65
2022/08/31 00:31:13;;;;;;;2.58;1.08;;;;;;;;;;4992055;28;20071;-65
2022/08/31 00:33:39;;;;;;;1.42;1.02;;;;;;;;;;5075790;28;20072;-65
2022/08/31 00:36:06;;;;;;;1.23;1.13;;;;;;;;;;4991930;28;20022;-65
2022/08/31 00:38:32;;;;;;;1.40;1.30;;;;;;;;;;4992152;28;20031;-64
2022/08/31 00:40:57;;;;;;;2.45;1.00;;;;;;;;;;5059160;28;20023;-64
2022/08/31 00:43:41;;;;;;;1.10;1.10;;;;;;;;;;5075835;28;20039;-64
2022/08/31 00:46:07;;;;;;;1.58;1.08;;;;;;;;;;4991753;28;20494;-64
2022/08/31 00:48:33;;;;;;;1.00;0.98;;;;;;;;;;4991811;28;20037;-65
2022/08/31 00:50:59;;;;;;;1.80;1.15;;;;;;;;;;4991885;28;20537;-65
2022/08/31 00:53:25;;;;;;;1.17;1.08;;;;;;;;;;4990482;28;20144;-65
2022/08/31 00:55:50;;;;;;;1.40;1.30;;;;;;;;;;4991441;28;20049;-65
2022/08/31 00:58:16;;;;;;;1.88;1.33;;;;;;;;;;5072040;28;20361;-65
2022/08/31 01:00:42;;;;;;;1.10;1.00;;;;;;;;;;5073834;28;20576;-65
2022/08/31 01:03:08;;;;;;;3.17;1.30;;;;;;;;;;5072434;28;20376;-64
2022/08/31 01:05:34;;;;;;;1.23;1.13;;;;;;;;;;5072070;28;20086;-65
2022/08/31 01:08:00;;;;;;;1.63;1.20;;;;;;;;;;5073144;28;20024;-64
2022/08/31 01:10:28;;;;;;;1.98;1.00;;;;;;;;;;5072261;28;20028;-65
2022/08/31 01:12:54;;;;;;;1.20;1.10;;;;;;;;;;5073564;28;20483;-65
2022/08/31 01:15:20;;;;;;;1.40;1.00;;;;;;;;;;5072507;28;20455;-66
2022/08/31 01:17:47;;;;;;;1.20;1.10;;;;;;;;;;5073532;28;20048;-65
2022/08/31 01:20:18;;;;;;;1.30;1.15;;;;;;;;;;5074310;28;20108;-65
2022/08/31 01:23:02;;;;;;;1.25;1.10;;;;;;;;;;5072266;28;20024;-64
2022/08/31 01:25:28;;;;;;;2.25;0.80;;;;;;;;;;5074004;28;20111;-65
2022/08/31 01:27:53;;;;;;;1.00;1.00;;;;;;;;;;5072142;28;20104;-65
2022/08/31 01:30:24;;;;;;;1.13;0.98;;;;;;;;;;5073706;28;20036;-65
2022/08/31 01:32:49;;;;;;;0.90;0.90;;;;;;;;;;5072905;28;20024;-64
2022/08/31 01:35:15;;;;;;;1.52;1.27;;;;;;;;;;5071996;28;20036;-65
2022/08/31 01:37:40;;;;;;;1.08;0.98;;;;;;;;;;5073839;28;20099;-64
2022/08/31 01:40:07;;;;;;;1.15;1.10;;;;;;;;;;5072077;28;20437;-65
2022/08/31 01:42:32;;;;;;;2.60;1.00;;;;;;;;;;5071775;28;20013;-64
2022/08/31 01:44:58;;;;;;;1.02;1.02;;;;;;;;;;5073263;28;20070;-64
2022/08/31 01:47:23;;;;;;;1.02;0.93;;;;;;;;;;5071840;28;20468;-65
2022/08/31 01:49:48;;;;;;;1.05;1.05;;;;;;;;;;5072446;28;20021;-65
2022/08/31 01:52:14;;;;;;;1.17;1.17;;;;;;;;;;5071911;28;20028;-63
2022/08/31 01:54:39;;;;;;;0.90;0.90;;;;;;;;;;5073817;28;20032;-63
2022/08/31 01:57:06;;;;;;;1.42;1.02;;;;;;;;;;5071817;28;20545;-63
2022/08/31 01:59:52;;;;;;;2.30;1.10;;;;;;;;;;4999633;28;20050;-61
2022/08/31 02:02:36;;;;;;;1.42;0.85;;;;;;;;;;4991211;28;20128;-62
2022/08/31 02:05:01;;;;;;;0.98;0.95;;;;;;;;;;4992014;28;20038;-63
2022/08/31 02:07:27;;;;;;;3.38;0.90;;;;;;;;;;5062591;28;20022;-63
2022/08/31 02:09:52;;;;;;;1.75;0.90;;;;;;;;;;5061852;28;20456;-63
2022/08/31 02:12:18;;;;;;;1.42;0.90;;;;;;;;;;4994636;28;20029;-63
2022/08/31 02:14:43;;;;;;;0.90;0.90;;;;;;;;;;4994623;28;20023;-63
2022/08/31 02:17:09;;;;;;;1.08;0.98;;;;;;;;;;4994051;28;20385;-62
2022/08/31 02:19:35;;;;;;;1.08;1.00;;;;;;;;;;5061726;28;20037;-63
2022/08/31 02:22:00;;;;;;;1.42;1.00;;;;;;;;;;5061472;28;20117;-63
2022/08/31 02:24:26;;;;;;;1.50;0.98;;;;;;;;;;5061954;28;20022;-63
2022/08/31 02:26:54;;;;;;;0.98;0.98;;;;;;;;;;5061713;28;20025;-63
2022/08/31 02:29:20;;;;;;;2.40;1.23;;;;;;;;;;4994219;28;20038;-62
2022/08/31 02:31:45;;;;;;;1.00;1.00;;;;;;;;;;5061417;28;20022;-63
2022/08/31 02:34:11;;;;;;;0.95;0.90;;;;;;;;;;5078446;28;20075;-62
2022/08/31 02:36:36;;;;;;;1.00;0.90;;;;;;;;;;4993727;28;20575;-63
2022/08/31 02:39:04;;;;;;;1.38;1.27;;;;;;;;;;5078279;28;20086;-62
2022/08/31 02:41:29;;;;;;;1.02;1.02;;;;;;;;;;5061463;28;20113;-63
2022/08/31 02:43:55;;;;;;;1.30;1.08;;;;;;;;;;4993983;28;20057;-63
2022/08/31 02:46:20;;;;;;;0.82;0.82;;;;;;;;;;5061215;28;20113;-62
2022/08/31 02:48:56;;;;;;;0.95;0.95;;;;;;;;;;5078101;28;20071;-63
2022/08/31 02:51:22;;;;;;;0.85;0.85;;;;;;;;;;5060948;28;20087;-63
2022/08/31 02:53:48;;;;;;;1.67;1.10;;;;;;;;;;5060994;28;20026;-63
2022/08/31 02:56:15;;;;;;;1.17;1.08;;;;;;;;;;5078107;28;20041;-63
2022/08/31 02:58:40;;;;;;;1.27;1.17;;;;;;;;;;5060736;28;20047;-63
2022/08/31 03:01:06;;;;;;;1.63;1.02;;;;;;;;;;5060981;28;20033;-64
2022/08/31 03:03:32;;;;;;;1.90;1.10;;;;;;;;;;5061602;28;20359;-63
2022/08/31 03:05:58;;;;;;;2.42;1.63;;;;;;;;;;5078363;28;20028;-63
2022/08/31 03:08:25;;;;;;;3.15;1.27;;;;;;;;;;5060645;28;20057;-63
2022/08/31 03:10:51;;;;;;;0.93;0.93;;;;;;;;;;5077653;28;20069;-63
2022/08/31 03:13:17;;;;;;;1.52;1.08;;;;;;;;;;5061099;28;20025;-63
2022/08/31 03:15:43;;;;;;;1.85;0.95;;;;;;;;;;5060280;28;20486;-63
2022/08/31 03:18:09;;;;;;;1.50;1.23;;;;;;;;;;5059877;28;20015;-62
2022/08/31 03:20:34;;;;;;;1.83;1.20;;;;;;;;;;5061237;28;20034;-61
2022/08/31 03:23:00;;;;;;;0.98;0.98;;;;;;;;;;5060454;28;20022;-64
2022/08/31 03:25:25;;;;;;;1.52;1.05;;;;;;;;;;5077540;22;20076;-63
2022/08/31 03:27:51;;;;;;;2.03;1.17;;;;;;;;;;5075729;28;20028;-64
2022/08/31 03:30:18;;;;;;;1.42;1.05;;;;;;;;;;5074069;28;20025;-62
2022/08/31 03:32:50;;;;;;;4.28;0.82;;;;;;;;;;5074113;28;20043;-62
2022/08/31 03:35:16;;;;;;;0.90;0.90;;;;;;;;;;5073930;28;20472;-62
2022/08/31 03:37:42;;;;;;;1.02;1.02;;;;;;;;;;5073923;28;20476;-64
2022/08/31 03:40:08;;;;;;;2.70;1.10;;;;;;;;;;5073900;28;20113;-64
2022/08/31 03:42:33;;;;;;;2.25;1.13;;;;;;;;;;5073861;28;20028;-64
2022/08/31 03:44:59;;;;;;;1.00;1.00;;;;;;;;;;5074093;28;20472;-64
2022/08/31 03:47:30;;;;;;;1.08;1.00;;;;;;;;;;5073769;28;20024;-63
2022/08/31 03:49:56;;;;;;;1.20;1.20;;;;;;;;;;5073759;28;20036;-63
2022/08/31 03:52:26;;;;;;;1.15;1.05;;;;;;;;;;5073657;28;20027;-62
2022/08/31 03:54:59;;;;;;;2.20;1.15;;;;;;;;;;5075422;28;20106;-63
2022/08/31 03:57:25;;;;;;;1.17;1.13;;;;;;;;;;5073569;28;20036;-62
2022/08/31 03:59:52;;;;;;;1.65;1.00;;;;;;;;;;5073552;28;20020;-63
2022/08/31 04:02:18;;;;;;;0.90;0.90;;;;;;;;;;5075300;28;20055;-63
2022/08/31 04:05:02;;;;;;;1.20;1.10;;;;;;;;;;5075473;28;20028;-63
2022/08/31 04:07:50;;;;;;;1.98;1.30;;;;;;;;;;5074499;28;20032;-63
2022/08/31 04:10:28;;;;;;;0.93;0.93;;;;;;;;;;5074588;28;20387;-63
2022/08/31 04:13:17;;;;;;;1.20;1.10;;;;;;;;;;5046002;28;20037;-63
2022/08/31 04:16:10;;;;;;;1.50;1.02;;;;;;;;;;5071209;28;20044;-63
2022/08/31 04:19:10;;;;;;;2.67;1.90;;;;;;;;;;5051265;28;20076;-63
2022/08/31 04:21:44;;;;;;;3.58;2.10;;;;;;;;;;5073184;28;20391;-63
2022/08/31 04:24:11;;;;;;;2.28;1.70;;;;;;;;;;5066740;28;20107;-66
2022/08/31 04:26:37;;;;;;;3.15;1.85;;;;;;;;;;4992673;28;20121;-66
2022/08/31 04:29:04;;;;;;;2.03;1.70;;;;;;;;;;5058968;28;20044;-65
2022/08/31 04:31:29;;;;;;;3.30;2.15;;;;;;;;;;4991534;28;20053;-65
2022/08/31 04:33:55;;;;;;;2.38;1.77;;;;;;;;;;5058286;28;20091;-65
2022/08/31 04:36:22;;;;;;;1.90;1.80;;;;;;;;;;4990932;28;20054;-66
2022/08/31 04:38:52;;;;;;;4.03;2.05;;;;;;;;;;5057531;28;20542;-65
2022/08/31 04:41:18;;;;;;;4.55;1.80;;;;;;;;;;5057110;28;20121;-65
2022/08/31 04:43:49;;;;;;;3.60;1.98;;;;;;;;;;4990681;28;20063;-66
2022/08/31 04:46:15;;;;;;;2.42;1.92;;;;;;;;;;5057031;28;20030;-65
2022/08/31 04:48:40;;;;;;;3.33;2.15;;;;;;;;;;5057522;28;20079;-65
2022/08/31 04:51:12;;;;;;;2.10;1.73;;;;;;;;;;5074397;28;20524;-66
2022/08/31 04:53:39;;;;;;;2.05;1.80;;;;;;;;;;4990589;28;20042;-65
2022/08/31 04:56:06;;;;;;;2.03;1.80;;;;;;;;;;5057198;28;20026;-65
2022/08/31 04:58:32;;;;;;;3.00;1.80;;;;;;;;;;5074516;28;20023;-65
2022/08/31 05:00:57;;;;;;;2.85;1.73;;;;;;;;;;4990816;28;20019;-65
2022/08/31 05:03:26;;;;;;;2.00;1.90;;;;;;;;;;4991369;28;20097;-65
2022/08/31 05:05:53;;;;;;;2.33;2.00;;;;;;;;;;5058631;28;20031;-65
2022/08/31 05:08:21;;;;;;;2.30;1.60;;;;;;;;;;5058491;28;20069;-65
2022/08/31 05:10:47;;;;;;;2.70;1.70;;;;;;;;;;5075221;28;20041;-65
2022/08/31 05:13:12;;;;;;;2.15;1.70;;;;;;;;;;5058400;28;20022;-65
2022/08/31 05:15:39;;;;;;;1.75;1.60;;;;;;;;;;5058159;28;20427;-66
2022/08/31 05:18:05;;;;;;;1.98;1.70;;;;;;;;;;5058285;28;20014;-65
2022/08/31 05:20:36;;;;;;;2.25;1.77;;;;;;;;;;5075123;28;20439;-65
2022/08/31 05:23:02;;;;;;;1.95;1.75;;;;;;;;;;5074870;28;20542;-66
2022/08/31 05:25:28;;;;;;;2.97;1.60;;;;;;;;;;5071448;28;20049;-66
2022/08/31 05:27:53;;;;;;;1.95;1.60;;;;;;;;;;5073243;28;20052;-67
2022/08/31 05:30:19;;;;;;;2.45;1.60;;;;;;;;;;5071911;28;20116;-65
2022/08/31 05:33:11;;;;;;;3.47;1.63;;;;;;;;;;5069641;28;20465;-65
2022/08/31 05:35:36;;;;;;;1.95;1.60;;;;;;;;;;5071587;28;20029;-65
2022/08/31 05:38:02;;;;;;;1.92;1.48;;;;;;;;;;5071321;28;20020;-65
2022/08/31 05:40:29;;;;;;;3.47;1.42;;;;;;;;;;5073951;28;20036;-65
2022/08/31 05:42:55;;;;;;;2.20;1.52;;;;;;;;;;5076638;28;20548;-66
2022/08/31 05:45:20;;;;;;;3.72;1.55;;;;;;;;;;5076566;28;20039;-65
2022/08/31 05:47:46;;;;;;;1.88;1.33;;;;;;;;;;5075382;28;20020;-66
2022/08/31 05:50:12;;;;;;;1.92;1.35;;;;;;;;;;5074804;28;20085;-65
2022/08/31 05:52:40;;;;;;;2.28;1.40;;;;;;;;;;5074814;28;20021;-65
2022/08/31 05:55:05;;;;;;;1.45;1.35;;;;;;;;;;5074817;28;20033;-65
2022/08/31 05:57:30;;;;;;;3.72;1.48;;;;;;;;;;5058054;28;20025;-66
2022/08/31 05:59:56;;;;;;;1.30;1.20;;;;;;;;;;5091655;28;20090;-64
2022/08/31 06:02:21;;;;;;;1.52;1.40;;;;;;;;;;5074427;28;20023;-65
2022/08/31 06:04:47;;;;;;;2.30;1.33;;;;;;;;;;5074738;28;20033;-65
2022/08/31 06:07:12;;;;;;;2.80;1.20;;;;;;;;;;5074412;28;20020;-66
2022/08/31 06:09:46;;;;;;;2.67;1.45;;;;;;;;;;5091352;28;20076;-65
2022/08/31 06:12:16;;;;;;;1.40;1.30;;;;;;;;;;5074524;28;20123;-65
2022/08/31 06:14:42;;;;;;;2.28;1.48;;;;;;;;;;5075434;28;20096;-66
2022/08/31 06:17:08;;;;;;;1.90;1.48;;;;;;;;;;5074349;28;20054;-65
2022/08/31 06:19:36;;;;;;;2.10;1.40;;;;;;;;;;5074701;28;20060;-65
2022/08/31 06:22:01;;;;;;;2.67;1.40;;;;;;;;;;5074788;28;20367;-65
2022/08/31 06:24:29;;;;;;;1.33;1.23;;;;;;;;;;5060520;28;20490;-67
2022/08/31 06:26:58;;;;;;;1.60;1.50;;;;;;;;;;5060482;28;20130;-69
2022/08/31 06:29:28;;;;;;;2.45;1.20;;;;;;;;;;5059993;28;20427;-69
2022/08/31 06:31:54;;;;;;;2.78;1.75;;;;;;;;;;4992839;28;20367;-69
2022/08/31 06:34:19;;;;;;;2.05;1.58;;;;;;;;;;5060323;28;20053;-69
2022/08/31 06:37:09;;;;;;;2.42;1.75;;;;;;;;;;5028301;28;20046;-69
2022/08/31 06:39:43;;;;;;;2.13;1.60;;;;;;;;;;4992668;28;20513;-69
2022/08/31 06:42:35;;;;;;;1.35;1.17;;;;;;;;;;4994572;28;20428;-69
2022/08/31 06:45:01;;;;;;;2.58;1.80;;;;;;;;;;4992934;28;20031;-69
2022/08/31 06:48:02;;;;;;;2.90;1.50;;;;;;;;;;4951612;29;20399;-68
2022/08/31 06:50:28;;;;;;;1.92;1.50;;;;;;;;;;5034605;28;20043;-68
2022/08/31 06:52:54;;;;;;;2.30;1.20;;;;;;;;;;5058121;28;20030;-63
2022/08/31 06:55:22;;;;;;;1.88;1.23;;;;;;;;;;5076619;28;20023;-64
2022/08/31 06:58:06;;;;;;;2.40;1.50;;;;;;;;;;4992740;28;20030;-65
2022/08/31 07:00:57;;;;;;;1.63;1.40;;;;;;;;;;4992202;28;20118;-64
2022/08/31 07:03:43;;;;;;;2.00;1.45;;;;;;;;;;4998891;28;20436;-64
2022/08/31 07:06:10;;;;;;;3.85;1.65;;;;;;;;;;5076524;28;20056;-65
2022/08/31 07:08:38;;;;;;;3.05;1.50;;;;;;;;;;5059668;28;20029;-64
2022/08/31 07:11:03;;;;;;;4.18;1.50;;;;;;;;;;5076104;28;20030;-63
2022/08/31 07:13:29;;;;;;;5.60;1.55;;;;;;;;;;5059743;28;20064;-64
2022/08/31 07:16:02;;;;;;;2.85;1.58;;;;;;;;;;5076342;28;20106;-65
2022/08/31 07:18:28;;;;;;;1.95;1.75;;;;;;;;;;5076500;28;20377;-65
2022/08/31 07:20:53;;;;;;;2.10;1.70;;;;;;;;;;5059473;28;20014;-64
2022/08/31 07:23:19;;;;;;;2.78;1.40;;;;;;;;;;5059074;28;20030;-69
2022/08/31 07:26:08;;;;;;;2.08;1.33;;;;;;;;;;5072901;28;20053;-65
2022/08/31 07:28:35;;;;;;;1.80;1.30;;;;;;;;;;5073110;28;20078;-64
2022/08/31 07:31:02;;;;;;;2.97;1.35;;;;;;;;;;5073332;28;20028;-64
2022/08/31 07:33:37;;;;;;;3.22;1.30;;;;;;;;;;5073064;28;20130;-64
2022/08/31 07:36:07;;;;;;;1.75;1.50;;;;;;;;;;5073188;28;20037;-64
2022/08/31 07:44:26;;;;;;;3.03;1.75;;;;;;;;;;5072537;28;20158;-63
2022/08/31 07:46:54;;;;;;;1.65;1.50;;;;;;;;;;5072992;28;20035;-64
2022/08/31 07:49:21;;;;;;;1.83;1.65;;;;;;;;;;5072639;28;20029;-64
2022/08/31 07:51:58;;;;;;;4.20;1.70;;;;;;;;;;5073954;28;20028;-64
2022/08/31 07:54:45;;;;;;;1.92;1.40;;;;;;;;;;5074750;28;20480;-64
2022/08/31 07:57:24;;;;;;;3.78;1.73;;;;;;;;;;5074750;28;20111;-63
2022/08/31 07:59:54;;;;;;;2.45;1.50;;;;;;;;;;5073552;28;20112;-64
2022/08/31 08:02:20;;;;;;;2.05;1.67;;;;;;;;;;5073198;28;20361;-62
2022/08/31 08:04:52;;;;;;;5.07;1.52;;;;;;;;;;5073502;28;20028;-63
2022/08/31 08:07:54;;;;;;;2.83;1.60;;;;;;;;;;5013416;28;20040;-63
2022/08/31 08:10:43;;;;;;;4.40;1.60;;;;;;;;;;5071146;28;20071;-64
2022/08/31 08:13:42;;;;;;;1.50;1.40;;;;;;;;;;5065188;28;20036;-64
2022/08/31 08:16:15;;;;;;;2.67;1.52;;;;;;;;;;5075002;28;20025;-64
2022/08/31 08:18:48;;;;;;;2.47;1.20;;;;;;;;;;5073145;28;20400;-64
2022/08/31 08:21:18;;;;;;;2.05;1.30;;;;;;;;;;5073394;28;20222;-65
2022/08/31 08:23:43;;;;;;;2.10;1.50;;;;;;;;;;5073097;28;20131;-64
2022/08/31 08:26:28;;;;;;;3.42;1.40;;;;;;;;;;4993627;28;20065;-64
2022/08/31 08:29:13;;;;;;;1.55;1.35;;;;;;;;;;4992981;28;20110;-64
2022/08/31 08:31:43;;;;;;;1.30;1.20;;;;;;;;;;5076295;28;20038;-64
2022/08/31 08:34:08;;;;;;;2.13;1.40;;;;;;;;;;5059156;28;20164;-67
2022/08/31 08:36:35;;;;;;;2.05;1.35;;;;;;;;;;4992527;28;20022;-67
2022/08/31 08:39:03;;;;;;;1.58;1.33;;;;;;;;;;4992302;28;20021;-68
2022/08/31 08:41:30;;;;;;;2.35;1.27;;;;;;;;;;5076020;28;20042;-68
2022/08/31 08:43:57;;;;;;;1.42;1.13;;;;;;;;;;5059122;28;20049;-67
2022/08/31 08:46:28;;;;;;;1.67;1.30;;;;;;;;;;5076180;28;20034;-68
2022/08/31 08:48:54;;;;;;;1.67;1.42;;;;;;;;;;5075783;28;20107;-67
2022/08/31 08:51:23;;;;;;;2.58;1.17;;;;;;;;;;5058837;28;20056;-68
2022/08/31 08:54:03;;;;;;;3.20;1.20;;;;;;;;;;5075819;28;20487;-67
2022/08/31 08:56:35;;;;;;;2.35;1.13;;;;;;;;;;4991955;28;20489;-67
2022/08/31 08:59:02;;;;;;;1.42;1.02;;;;;;;;;;5075601;28;20478;-68
2022/08/31 09:01:35;;;;;;;1.30;1.20;;;;;;;;;;5059049;28;20022;-67
2022/08/31 09:04:16;;;;;;;1.45;1.00;;;;;;;;;;5075813;28;20027;-67
2022/08/31 09:07:43;;;;;;;2.17;1.30;;;;;;;;;;5010414;28;20042;-67
2022/08/31 09:10:17;;;;;;;1.20;1.10;;;;;;;;;;5015133;28;20040;-67
2022/08/31 09:12:50;;;;;;;2.92;1.30;;;;;;;;;;5015103;28;20025;-67
2022/08/31 09:15:27;;;;;;;0.80;0.80;;;;;;;;;;5032747;28;20045;-67
2022/08/31 09:18:02;;;;;;;1.83;1.10;;;;;;;;;;5075789;28;20129;-67
2022/08/31 09:20:32;;;;;;;1.40;1.20;;;;;;;;;;5058486;28;20042;-67
2022/08/31 09:22:59;;;;;;;1.10;1.00;;;;;;;;;;5075397;28;20031;-67
2022/08/31 09:25:43;;;;;;;1.05;0.95;;;;;;;;;;5058372;28;20095;-67
2022/08/31 09:28:32;;;;;;;1.83;0.85;;;;;;;;;;4991533;28;20034;-67
2022/08/31 09:30:58;;;;;;;3.22;1.70;;;;;;;;;;5058699;28;20141;-68
2022/08/31 09:33:25;;;;;;;2.22;1.23;;;;;;;;;;4991275;28;20105;-67
2022/08/31 09:35:55;;;;;;;1.33;1.10;;;;;;;;;;5058390;28;20056;-68
2022/08/31 09:38:20;;;;;;;;;;;;;;;;;;4991792;28;20080;-67
2022/08/31 09:40:47;;;;;;;2.23;0.90;;;;;;;;;;4991174;28;19986;-67
2022/08/31 09:43:30;;;;;;;1.27;1.10;;;;;;;;;;4991114;28;20030;-67
2022/08/31 09:46:10;;;;;;;2.00;1.00;;;;;;;;;;4991353;28;20062;-67
2022/08/31 09:48:38;;;;;;;1.20;1.10;;;;;;;;;;4991197;28;20037;-67
2022/08/31 09:51:05;;;;;;;1.88;1.23;;;;;;;;;;4991135;28;20022;-67
2022/08/31 09:56:22;;;;;;;0.90;0.90;;;;;;;;;;5058361;28;20041;-67
2022/08/31 09:58:50;;;;;;;1.80;1.02;;;;;;;;;;4990973;28;20014;-68
2022/08/31 10:01:33;;;;;;;1.23;1.10;;;;;;;;;;4990996;28;20065;-68
2022/08/31 10:04:17;;;;;;;1.55;0.90;;;;;;;;;;4991002;28;20129;-67
2022/08/31 10:06:45;;;;;;;1.48;1.17;;;;;;;;;;4991034;28;20034;-68
2022/08/31 10:09:16;;;;;;;2.20;1.58;;;;;;;;;;4990943;28;20026;-67
2022/08/31 10:11:46;;;;;;;1.95;1.70;;;;;;;;;;5058295;28;20066;-67
2022/08/31 10:14:21;;;;;;;1.27;1.17;;;;;;;;;;4990823;28;20077;-68
2022/08/31 10:16:50;;;;;;;1.10;1.00;;;;;;;;;;4991011;28;20083;-68
2022/08/31 10:19:29;;;;;;;1.95;1.02;;;;;;;;;;5057998;28;20079;-67
2022/08/31 10:22:20;;;;;;;1.45;0.82;;;;;;;;;;4990680;28;20031;-67
2022/08/31 10:24:47;;;;;;;1.23;0.90;;;;;;;;;;4990587;28;20054;-67
2022/08/31 10:27:19;;;;;;;2.60;1.10;;;;;;;;;;4993458;28;20064;-68
2022/08/31 10:29:44;;;;;;;1.98;0.93;;;;;;;;;;5061450;28;20062;-68
2022/08/31 10:32:19;;;;;;;3.33;1.05;;;;;;;;;;4993977;28;20061;-68
2022/08/31 10:35:04;;;;;;;0.88;0.80;;;;;;;;;;4993963;28;20037;-68
2022/08/31 10:37:42;;;;;;;0.93;0.90;;;;;;;;;;4993885;28;20042;-67
2022/08/31 10:40:11;;;;;;;1.00;0.90;;;;;;;;;;4993817;28;20105;-67
2022/08/31 10:42:40;;;;;;;2.63;1.00;;;;;;;;;;4993893;28;20014;-67
2022/08/31 10:45:21;;;;;;;1.10;1.02;;;;;;;;;;4993673;28;20030;-68
2022/08/31 10:47:48;;;;;;;2.10;0.80;;;;;;;;;;4994230;28;20049;-68
2022/08/31 10:50:15;;;;;;;1.05;0.80;;;;;;;;;;4993687;28;20111;-67
2022/08/31 10:52:50;;;;;;;1.02;0.93;;;;;;;;;;4993624;28;20044;-68
2022/08/31 10:55:27;;;;;;;2.22;1.00;;;;;;;;;;4993870;28;20050;-67
2022/08/31 10:58:13;;;;;;;2.45;1.02;;;;;;;;;;4993796;28;20111;-68
2022/08/31 11:00:57;;;;;;;3.40;1.00;;;;;;;;;;4994034;28;20034;-67
2022/08/31 11:03:35;;;;;;;1.10;0.80;;;;;;;;;;4993705;28;20031;-67
2022/08/31 11:06:01;;;;;;;1.90;0.93;;;;;;;;;;5077833;28;20030;-67
2022/08/31 11:08:47;;;;;;;1.67;0.75;;;;;;;;;;4993970;28;20018;-67
2022/08/31 11:11:15;;;;;;;0.88;0.70;;;;;;;;;;5060927;28;20041;-67
2022/08/31 11:14:08;;;;;;;1.80;0.90;;;;;;;;;;4993614;28;20030;-68
2022/08/31 11:17:09;;;;;;;1.67;0.90;;;;;;;;;;5007985;28;20141;-68
2022/08/31 11:19:49;;;;;;;0.88;0.75;;;;;;;;;;5033939;28;20112;-68
2022/08/31 11:22:35;;;;;;;1.05;0.90;;;;;;;;;;4997911;28;20046;-67
2022/08/31 11:25:02;;;;;;;1.67;0.80;;;;;;;;;;4993129;28;20092;-67
2022/08/31 11:27:35;;;;;;;1.00;0.85;;;;;;;;;;5060630;28;20203;-67
2022/08/31 11:30:26;;;;;;;1.55;0.80;;;;;;;;;;5077392;28;20035;-68
2022/08/31 11:32:53;;;;;;;0.70;0.70;;;;;;;;;;4997415;28;20067;-69
2022/08/31 11:36:04;;;;;;;1.58;0.80;;;;;;;;;;4992965;28;20022;-68
2022/08/31 11:38:39;;;;;;;0.60;0.57;;;;;;;;;;5033006;28;20053;-68
2022/08/31 11:41:04;;;;;;;2.53;0.77;;;;;;;;;;5033436;28;20477;-68
2022/08/31 11:43:29;;;;;;;0.75;0.68;;;;;;;;;;5010434;28;20092;-68
2022/08/31 11:45:56;;;;;;;1.70;0.60;;;;;;;;;;5060248;28;20087;-68
2022/08/31 11:48:52;;;;;;;1.00;0.82;;;;;;;;;;4993019;28;20026;-67
2022/08/31 11:51:36;;;;;;;9.65;5.63;;;;;;;;;;5000158;28;20046;-67
2022/08/31 11:54:10;;;;;;;1.58;1.48;;;;;;;;;;4991670;28;20037;-67
2022/08/31 11:56:37;;;;;;;0.73;0.73;;;;;;;;;;4991543;28;20573;-67
2022/08/31 11:59:24;;;;;;;0.90;0.90;;;;;;;;;;4991512;28;20025;-68
2022/08/31 12:01:53;;;;;;;1.10;1.00;;;;;;;;;;4991507;28;20029;-67
2022/08/31 12:04:42;;;;;;;4.07;3.67;;;;;;;;;;5058680;28;20117;-67
2022/08/31 12:07:10;;;;;;;1.10;1.00;;;;;;;;;;4997165;28;20049;-67
2022/08/31 12:09:44;;;;;;;2.30;0.90;;;;;;;;;;4991400;28;20029;-68
2022/08/31 12:12:18;;;;;;;0.93;0.63;;;;;;;;;;4991324;28;20474;-67
2022/08/31 12:14:48;;;;;;;1.48;0.60;;;;;;;;;;4991366;28;20026;-67
2022/08/31 12:17:30;;;;;;;0.95;0.70;;;;;;;;;;4991570;28;20034;-67
2022/08/31 12:19:59;;;;;;;1.73;0.90;;;;;;;;;;4991316;28;20059;-67
2022/08/31 12:25:48;;;;;;;0.93;0.75;;;;;;;;;;4990996;28;20133;-67
2022/08/31 12:28:16;;;;;;;0.82;0.80;;;;;;;;;;5034972;28;20035;-68
2022/08/31 12:30:53;;;;;;;1.17;0.73;;;;;;;;;;4991050;28;20038;-67
2022/08/31 12:33:20;;;;;;;0.65;0.65;;;;;;;;;;4991032;28;20091;-67
2022/08/31 12:35:48;;;;;;;0.70;0.70;;;;;;;;;;4990930;28;20030;-67
2022/08/31 12:38:21;;;;;;;0.85;0.80;;;;;;;;;;4991009;28;20065;-67
2022/08/31 12:40:48;;;;;;;0.98;0.80;;;;;;;;;;4990897;28;20037;-68
2022/08/31 12:43:16;;;;;;;0.73;0.73;;;;;;;;;;4990940;28;20018;-67
2022/08/31 12:45:51;;;;;;;1.08;0.60;;;;;;;;;;4990861;28;20037;-67
2022/08/31 12:48:19;;;;;;;2.53;0.85;;;;;;;;;;4990550;28;20474;-68
2022/08/31 12:50:48;;;;;;;0.95;0.90;;;;;;;;;;4989674;28;20458;-68
2022/08/31 12:53:37;;;;;;;0.70;0.68;;;;;;;;;;4990739;28;20065;-67
2022/08/31 12:56:02;;;;;;;0.70;0.70;;;;;;;;;;4990086;28;20038;-68
2022/08/31 12:58:28;;;;;;;1.00;1.00;;;;;;;;;;4990600;28;20030;-68
2022/08/31 13:01:02;;;;;;;2.70;0.88;;;;;;;;;;4991344;28;20105;-68
2022/08/31 13:03:29;;;;;;;0.85;0.80;;;;;;;;;;4990768;28;20498;-67
2022/08/31 13:06:07;;;;;;;1.08;0.80;;;;;;;;;;4990283;28;20034;-67
2022/08/31 13:08:34;;;;;;;4.80;1.13;;;;;;;;;;4990556;28;20030;-67
2022/08/31 13:11:11;;;;;;;1.35;1.08;;;;;;;;;;4990529;28;20021;-67
2022/08/31 13:13:36;;;;;;;0.70;0.70;;;;;;;;;;4989954;28;20035;-67
2022/08/31 13:16:03;;;;;;;2.25;1.50;;;;;;;;;;4990377;28;20155;-67
2022/08/31 13:18:29;;;;;;;3.58;2.38;;;;;;;;;;4990792;28;20022;-67
2022/08/31 13:21:04;;;;;;;4.60;2.70;;;;;;;;;;4990376;28;20042;-67
2022/08/31 13:23:36;;;;;;;1.15;1.05;;;;;;;;;;4990311;28;20101;-67
2022/08/31 13:26:23;;;;;;;1.52;0.98;;;;;;;;;;4989854;28;20383;-67
2022/08/31 13:28:54;;;;;;;1.50;1.00;;;;;;;;;;4990246;28;20470;-67
2022/08/31 13:31:22;;;;;;;1.15;0.82;;;;;;;;;;4990280;28;20026;-67
2022/08/31 13:33:47;;;;;;;0.95;0.70;;;;;;;;;;4990242;28;20014;-67
2022/08/31 13:36:32;;;;;;;1.35;1.17;;;;;;;;;;4990106;28;20389;-67
2022/08/31 13:39:03;;;;;;;2.92;1.15;;;;;;;;;;4990134;28;20025;-67
2022/08/31 13:41:32;;;;;;;1.23;0.80;;;;;;;;;;4990067;28;20038;-67
2022/08/31 13:44:00;;;;;;;22.83;12.90;;;;;;;;;;5057222;28;20029;-67
2022/08/31 13:46:26;;;;;;;94.57;74.18;;;;;;;;;;4988363;28;20030;-67
2022/08/31 13:49:00;;;;;;;17.05;13.68;;;;;;;;;;4988284;28;20052;-70
2022/08/31 13:51:28;;;;;;;32.30;18.58;;;;;;;;;;4989005;28;20064;-68
2022/08/31 13:53:54;;;;;;;24.77;15.95;;;;;;;;;;4989689;28;20113;-68
2022/08/31 13:56:53;;;;;;;79.32;63.85;;;;;;;;;;4989849;28;20117;-69
2022/08/31 13:59:16;;;;;;;13.10;11.68;;;;;;;;;;4989545;28;20084;-68
2022/08/31 14:01:56;;;;;;;3.55;3.33;;;;;;;;;;4991188;28;20038;-68
2022/08/31 14:04:37;;;;;;;1.27;0.90;;;;;;;;;;4993294;28;20034;-68
2022/08/31 14:07:03;;;;;;;13.00;11.68;;;;;;;;;;4993220;28;20059;-69
2022/08/31 14:09:28;;;;;;;11.70;10.73;;;;;;;;;;4993107;28;20474;-68
2022/08/31 14:11:58;;;;;;;3.35;3.15;;;;;;;;;;4992866;28;20110;-68
2022/08/31 14:14:28;;;;;;;4.57;4.25;;;;;;;;;;4993127;28;20026;-67
2022/08/31 14:16:59;;;;;;;2.72;1.70;;;;;;;;;;5077329;28;20538;-67
2022/08/31 14:19:28;;;;;;;1.60;1.50;;;;;;;;;;4993120;28;20046;-63
2022/08/31 14:21:54;;;;;;;2.28;2.17;;;;;;;;;;4993936;28;20015;-63
2022/08/31 14:24:19;;;;;;;3.92;3.60;;;;;;;;;;4993497;28;20137;-63
2022/08/31 14:26:45;;;;;;;2.13;1.20;;;;;;;;;;4993218;28;20018;-63
2022/08/31 14:29:12;;;;;;;15.95;14.05;;;;;;;;;;4992837;28;20390;-63
2022/08/31 14:31:47;;;;;;;29.13;15.50;;;;;;;;;;4991662;28;20031;-64
2022/08/31 14:34:20;;;;;;;46.47;30.98;;;;;;;;;;4992995;28;20026;-64
2022/08/31 14:36:57;;;;;;;18.85;11.75;;;;;;;;;;5076623;28;20038;-63
2022/08/31 14:39:32;;;;;;;2.42;2.17;;;;;;;;;;4991869;28;20435;-63
2022/08/31 14:42:00;;;;;;;2.38;2.17;;;;;;;;;;5059032;28;20485;-64
2022/08/31 14:44:28;;;;;;;2.78;1.55;;;;;;;;;;4991548;28;20029;-64
2022/08/31 14:46:53;;;;;;;6.38;4.53;;;;;;;;;;5058947;28;20118;-63
2022/08/31 14:49:18;;;;;;;2.38;1.85;;;;;;;;;;4991828;28;20113;-63
2022/08/31 14:51:45;;;;;;;16.60;13.88;;;;;;;;;;5059363;28;20498;-63
2022/08/31 14:54:10;;;;;;;31.73;26.02;;;;;;;;;;4992367;28;20015;-62
2022/08/31 14:56:44;;;;;;;45.53;32.90;;;;;;;;;;4992425;28;20034;-63
2022/08/31 14:59:11;;;;;;;71.25;25.77;;;;;;;;;;4992793;28;20026;-64
2022/08/31 15:01:38;;;;;;;1.60;1.50;;;;;;;;;;4992434;28;20101;-64
2022/08/31 15:04:04;;;;;;;67.75;20.70;;;;;;;;;;5077174;28;20027;-63
2022/08/31 15:06:31;;;;;;;43.53;11.90;;;;;;;;;;4992415;28;20045;-63
2022/08/31 15:08:58;;;;;;;11.65;4.07;;;;;;;;;;4992330;28;20171;-63
2022/08/31 15:11:23;;;;;;;92.78;31.13;;;;;;;;;;4992315;28;20424;-63
2022/08/31 15:13:49;;;;;;;35.67;12.88;;;;;;;;;;4991172;28;20038;-63
2022/08/31 15:16:15;;;;;;;141.50;49.95;;;;;;;;;;4991795;28;20101;-62
2022/08/31 15:18:41;;;;;;;116.28;40.28;;;;;;;;;;4992145;28;20030;-63